Latest Weather Observations for Warburton

IDD60801

Issued at 6:31 am CST Saturday 28 November 2020 (issued every 10 minutes, with the page automatically refreshed every 10 minutes)

About weather observations | Map of weather stations | Latest weather observations for NT | Other Formats
Station Details ID: 013011 Name: WARBURTON AIRFIELD Lat: -26.13 Lon: 126.58 Height: 459.0 m
Data from the previous 72 hours. | See also: Recent months at Warburton
Date/Time
CST
Temp
°C
App
Temp
°C
Dew
Point
°C
Rel
Hum
%
Delta-T
°C
Wind Press
QNH
hPa
Press
MSL
hPa
Rain since
9am
mm
Dir  Spd
km/h
Gust
km/h
Spd
kts
Gust
kts
28/06:30am 27.2 27.7 17.4 55 6.3 ENE 11 17 6 9 1008.4 1005.4 0.6
28/06:00am 26.6 28.0 17.7 58 5.7 ENE 7 15 4 8 1008.2 1005.2 0.6
28/05:30am 25.9 27.2 17.5 59 5.4 ENE 7 9 4 5 1007.9 1004.9 0.6
28/05:00am 26.1 27.5 17.7 60 5.4 E 7 9 4 5 1007.7 1004.7 0.6
28/04:30am 25.8 27.3 17.7 61 5.2 ENE 6 9 3 5 1007.5 1004.5 0.6
28/04:00am 26.4 27.7 17.5 58 5.7 ESE 7 11 4 6 1007.6 1004.6 0.6
28/03:30am 27.2 27.0 16.8 53 6.6 ESE 13 17 7 9 1007.6 1004.6 0.6
28/03:00am 27.6 28.3 16.2 49 7.2 SE 7 11 4 6 1007.6 1004.6 0.6
28/02:30am 27.7 28.3 16.9 51 6.9 ESE 9 13 5 7 1007.5 1004.5 0.6
28/02:00am 28.2 29.3 17.1 51 7.1 SE 7 9 4 5 1007.8 1004.8 0.6
28/01:30am 28.7 29.6 17.6 51 7.2 SE 9 13 5 7 1008.1 1005.1 0.6
28/01:00am 28.3 30.6 19.8 60 5.6 SE 7 9 4 5 1008.6 1005.6 0.6
28/12:30am 29.0 30.2 19.0 54 6.6 S 11 15 6 8 1008.7 1005.7 0.6
28/12:00am 29.3 29.9 18.7 52 7.0 SSW 13 17 7 9 1008.7 1005.7 0.6
 
Date/Time
CST
Temp
°C
App
Temp
°C
Dew
Point
°C
Rel
Hum
%
Delta-T
°C
Wind Press
QNH
hPa
Press
MSL
hPa
Rain since
9am
mm
Dir  Spd
km/h
Gust
km/h
Spd
kts
Gust
kts
27/11:30pm 29.1 29.5 18.2 51 7.1 SSW 13 15 7 8 1008.9 1005.9 0.6
27/11:00pm 29.6 30.1 17.4 47 7.9 S 11 17 6 9 1009.3 1006.4 0.6
27/10:30pm 30.7 29.2 16.7 43 9.0 S 20 30 11 16 1009.7 1006.8 0.6
27/10:00pm 31.0 32.4 17.7 45 8.6 N 7 9 4 5 1009.5 1006.6 0.6
27/09:30pm 32.4 31.7 16.3 38 10.3 W 15 26 8 14 1009.0 1006.1 0.6
27/09:00pm 32.1 30.3 16.0 38 10.2 SSW 20 28 11 15 1008.6 1005.6 0.6
27/08:30pm 30.6 29.2 16.6 43 9.0 SW 19 26 10 14 1009.5 1006.6 0.6
27/08:00pm 30.5 30.9 18.9 50 7.7 SSW 15 20 8 11 1009.1 1006.2 0.6
27/07:30pm 33.5 34.2 15.5 34 11.4 NE 6 20 3 11 1009.1 1006.2 0.6
27/07:22pm 33.6 31.3 14.1 30 12.1 E 19 28 10 15 1008.7 1005.7 0.6
27/07:00pm 33.0 29.8 16.4 37 10.7 WNW 28 43 15 23 1006.6 1003.6 0.6
27/06:55pm 35.1 30.4 14.9 29 12.8 NW 33 56 18 30 1005.7 1002.7 0.6
27/06:51pm 31.9 26.9 16.2 38 10.0 NW 37 56 20 30 1006.0 1003.0 0.6
27/06:42pm 33.5 28.7 17.6 38 10.4 NNW 39 54 21 29 1006.8 1003.8 0.2
27/06:30pm 38.8 32.7 11.8 20 16.6 N 35 54 19 29 1006.0 1003.0 0.0
27/06:24pm 39.2 36.1 12.1 20 16.7 NNW 20 50 11 27 1005.8 1002.8 0.0
27/06:00pm 41.9 39.2 8.9 14 19.7 NW 13 24 7 13 1005.2 1002.2 0.0
27/05:30pm 41.1 38.0 10.3 16 18.7 NW 17 35 9 19 1005.3 1002.3 0.0
27/05:00pm 41.8 39.6 10.8 16 19.0 WNW 13 24 7 13 1005.4 1002.4 0.0
27/04:30pm 41.8 38.2 9.9 15 19.3 WNW 19 30 10 16 1005.5 1002.5 0.0
27/04:00pm 41.5 37.6 9.6 15 19.2 NW 20 30 11 16 1005.8 1002.8 0.0
27/03:30pm 41.5 39.0 9.6 15 19.2 WSW 13 20 7 11 1006.1 1003.1 0.0
27/03:00pm 41.6 36.3 9.7 15 19.2 NNW 28 43 15 23 1006.8 1003.8 0.0
27/02:30pm 40.9 36.9 9.2 15 18.9 WNW 20 41 11 22 1006.9 1003.9 0.0
27/02:00pm 41.0 37.6 9.2 15 19.0 NW 17 37 9 20 1007.2 1004.3 0.0
27/01:30pm 40.9 37.5 9.2 15 18.9 NW 17 32 9 17 1007.8 1004.8 0.0
27/01:00pm 40.3 37.8 9.6 16 18.4 W 13 26 7 14 1008.3 1005.3 0.0
27/12:30pm 40.1 37.2 9.5 16 18.3 NNW 15 35 8 19 1008.8 1005.8 0.0
27/12:00pm 41.0 38.3 10.2 16 18.6 N 15 30 8 16 1009.2 1006.3 0.0
27/11:30am 40.7 37.5 10.0 16 18.5 WNW 17 30 9 16 1009.6 1006.7 0.0
27/11:00am 39.4 36.5 9.8 17 17.7 WNW 15 26 8 14 1010.1 1007.1 0.0
27/10:30am 38.8 37.4 11.0 19 16.9 WNW 9 24 5 13 1010.2 1007.2 0.0
27/10:00am 37.4 35.4 11.4 21 15.8 NW 13 19 7 10 1010.3 1007.3 0.0
27/09:30am 37.5 35.7 12.2 22 15.6 WSW 13 20 7 11 1010.4 1007.4 0.0
27/09:00am 36.1 35.2 13.6 26 14.0 SW 11 13 6 7 1010.6 1007.6 0.0
27/08:30am 34.5 34.0 13.9 29 12.8 WSW 9 15 5 8 1010.4 1007.4 0.0
27/08:00am 33.0 31.8 14.1 32 11.7 WSW 13 17 7 9 1010.2 1007.2 0.0
27/07:30am 31.5 31.0 13.7 33 11.0 WSW 9 13 5 7 1009.9 1006.9 0.0
27/07:00am 29.0 28.2 12.8 36 9.7 NNW 9 11 5 6 1009.7 1006.8 0.0
27/06:30am 28.5 28.1 12.4 37 9.6 WSW 6 7 3 4 1009.4 1006.5 0.0
27/06:00am 29.3 28.3 12.3 35 10.1 WNW 9 11 5 6 1009.2 1006.3 0.0
27/05:30am 29.4 27.9 11.9 34 10.4 WNW 11 13 6 7 1009.2 1006.3 0.0
27/05:00am 30.0 28.9 12.0 33 10.7 WSW 9 9 5 5 1009.0 1006.1 0.0
27/04:30am 31.3 30.7 12.2 31 11.5 W 7 9 4 5 1009.1 1006.2 0.0
27/04:00am 31.8 31.3 12.1 30 11.8 WNW 6 7 3 4 1009.2 1006.3 0.0
27/03:30am 33.1 32.4 12.1 27 12.7 WNW 7 17 4 9 1009.3 1006.4 0.0
27/03:00am 32.1 30.2 11.8 29 12.1 NE 13 20 7 11 1009.7 1006.8 0.0
27/02:30am 32.9 31.3 11.4 27 12.8 WNW 11 15 6 8 1009.4 1006.5 0.0
27/02:00am 33.9 31.6 11.7 26 13.4 W 15 22 8 12 1009.5 1006.6 0.0
27/01:30am 32.5 31.0 9.3 24 13.4 WNW 7 11 4 6 1009.6 1006.7 0.0
27/01:00am 32.6 30.4 9.4 24 13.4 S 11 13 6 7 1009.6 1006.7 0.0
27/12:30am 32.3 32.1 9.2 24 13.3 CALM 0 0 0 0 1009.6 1006.7 0.0
27/12:00am 32.5 32.2 8.7 23 13.6 CALM 0 0 0 0 1009.9 1006.9 0.0
 
Date/Time
CST
Temp
°C
App
Temp
°C
Dew
Point
°C
Rel
Hum
%
Delta-T
°C
Wind Press
QNH
hPa
Press
MSL
hPa
Rain since
9am
mm
Dir  Spd
km/h
Gust
km/h
Spd
kts
Gust
kts
26/11:30pm 32.8 32.7 9.6 24 13.5 CALM 0 0 0 0 1010.1 1007.1 0.0
26/11:00pm 33.1 32.9 9.2 23 13.8 CALM 0 0 0 0 1010.1 1007.1 0.0
26/10:30pm 33.2 31.9 9.3 23 13.8 NNE 6 7 3 4 1010.0 1007.0 0.0
26/10:00pm 33.7 32.2 9.0 22 14.3 NNE 7 9 4 5 1009.9 1006.9 0.0
26/09:30pm 34.2 32.8 9.4 22 14.5 N 7 9 4 5 1009.6 1006.7 0.0
26/09:00pm 34.9 33.4 9.3 21 14.9 N 7 9 4 5 1009.3 1006.4 0.0
26/08:30pm 35.7 33.9 9.3 20 15.5 NNW 9 11 5 6 1009.1 1006.2 0.0
26/08:00pm 36.3 34.2 9.8 20 15.7 N 11 13 6 7 1008.7 1005.7 0.0
26/07:30pm 36.9 34.3 9.5 19 16.2 NNE 13 20 7 11 1008.4 1005.4 0.0
26/07:00pm 38.0 35.6 8.7 17 17.1 NE 11 15 6 8 1008.0 1005.0 0.0
26/06:30pm 38.2 35.7 8.0 16 17.5 ENE 11 19 6 10 1007.8 1004.8 0.0
26/06:00pm 38.3 35.0 8.1 16 17.5 NNE 15 20 8 11 1007.7 1004.7 0.0
26/05:30pm 38.9 37.2 8.5 16 17.8 NNE 7 13 4 7 1007.7 1004.7 0.0
26/05:00pm 38.6 36.5 8.3 16 17.7 NNE 9 15 5 8 1007.8 1004.8 0.0
26/04:30pm 39.1 35.3 7.7 15 18.2 NNW 17 24 9 13 1008.0 1005.0 0.0
26/04:00pm 39.0 36.8 7.7 15 18.1 S 9 13 5 7 1008.2 1005.2 0.0
26/03:30pm 39.5 35.8 8.1 15 18.4 WSW 17 24 9 13 1008.4 1005.4 0.0
26/03:00pm 39.0 36.6 8.6 16 17.8 SW 11 19 6 10 1008.7 1005.7 0.0
26/02:30pm 38.7 36.6 8.4 16 17.7 SSW 9 17 5 9 1009.0 1006.1 0.0
26/02:00pm 39.3 37.4 8.9 16 17.9 NW 9 24 5 13 1009.4 1006.5 0.0
26/01:30pm 39.0 35.5 8.6 16 17.9 WSW 17 35 9 19 1009.9 1006.9 0.0
26/01:00pm 37.8 35.0 8.6 17 17.0 W 13 20 7 11 1010.5 1007.5 0.0
26/12:30pm 38.2 35.5 8.9 17 17.2 NW 13 24 7 13 1010.8 1007.8 0.0
26/12:00pm 38.0 35.5 9.6 18 16.8 S 13 30 7 16 1011.1 1008.2 0.0
26/11:30am 37.3 35.8 9.0 18 16.6 SSW 7 17 4 9 1011.5 1008.6 0.0
26/11:00am 37.0 35.2 9.6 19 16.2 SSW 9 15 5 8 1011.9 1009.0 0.0
26/10:30am 36.4 34.5 9.1 19 16.0 SW 9 15 5 8 1012.3 1009.3 0.0
26/10:00am 35.2 33.4 9.6 21 15.0 SSW 9 17 5 9 1012.4 1009.4 0.0
26/09:30am 34.5 33.1 9.7 22 14.5 SSE 7 13 4 7 1012.4 1009.4 0.0
26/09:00am 33.3 31.3 10.0 24 13.6 SE 11 19 6 10 1012.3 1009.3 0.0
26/08:30am 31.8 30.1 9.9 26 12.7 SE 9 13 5 7 1012.0 1009.1 0.0
26/08:00am 30.2 29.5 10.2 29 11.6 S 4 7 2 4 1011.9 1009.0 0.0
26/07:30am 29.3 29.3 9.9 30 11.1 CALM 0 0 0 0 1011.7 1008.8 0.0
26/07:00am 28.0 27.2 9.8 32 10.4 SSW 4 9 2 5 1011.3 1008.4 0.0
26/06:30am 25.8 23.9 9.2 35 9.3 NE 9 11 5 6 1011.0 1008.1 0.0
26/06:00am 25.7 24.1 8.7 34 9.4 NW 7 11 4 6 1010.6 1007.6 0.0
26/05:30am 26.0 25.4 8.9 34 9.5 NE 2 6 1 3 1010.0 1007.0 0.0
26/05:00am 26.4 25.1 9.3 34 9.6 ESE 6 9 3 5 1009.5 1006.6 0.0
26/04:30am 27.6 26.7 9.4 32 10.3 S 4 9 2 5 1009.5 1006.6 0.0
26/04:00am 28.3 26.2 9.6 31 10.6 SSW 11 15 6 8 1009.4 1006.5 0.0
26/03:30am 27.8 27.5 10.1 33 10.1 NE 2 6 1 3 1009.2 1006.3 0.0
26/03:00am 27.7 26.9 9.5 32 10.3 NNE 4 9 2 5 1008.9 1005.9 0.0
26/02:30am 28.0 27.9 9.3 31 10.6 CALM 0 0 0 0 1008.8 1005.8 0.0
26/02:00am 28.2 28.2 9.9 32 10.4 CALM 0 0 0 0 1009.0 1006.1 0.0
26/01:30am 28.6 28.6 9.8 31 10.8 CALM 0 6 0 3 1009.4 1006.5 0.0
26/01:00am 29.3 27.6 9.9 30 11.1 N 9 15 5 8 1009.6 1006.7 0.0
26/12:30am 29.6 28.4 9.7 29 11.4 SSE 6 9 3 5 1009.9 1006.9 0.0
26/12:00am 29.5 29.4 9.6 29 11.4 CALM 0 0 0 0 1010.2 1007.2 0.0
 
Date/Time
CST
Temp
°C
App
Temp
°C
Dew
Point
°C
Rel
Hum
%
Delta-T
°C
Wind Press
QNH
hPa
Press
MSL
hPa
Rain since
9am
mm
Dir  Spd
km/h
Gust
km/h
Spd
kts
Gust
kts
25/11:30pm 29.7 29.7 9.8 29 11.4 CALM 0 0 0 0 1010.4 1007.4 0.0
25/11:00pm 30.3 30.4 10.3 29 11.6 CALM 0 0 0 0 1010.5 1007.5 0.0
25/10:30pm 30.7 30.9 10.6 29 11.8 CALM 0 0 0 0 1010.3 1007.3 0.0
25/10:00pm 30.9 29.7 10.3 28 12.0 NE 7 9 4 5 1010.1 1007.1 0.0
25/09:30pm 31.7 31.5 10.4 27 12.5 NNE 2 6 1 3 1010.0 1007.0 0.0
25/09:00pm 32.4 31.2 10.4 26 12.9 N 7 7 4 4 1009.7 1006.8 0.0
25/08:30pm 33.2 32.1 10.5 25 13.4 N 7 9 4 5 1009.5 1006.6 0.0
25/08:00pm 33.8 32.3 10.4 24 13.8 NNE 9 13 5 7 1009.3 1006.4 0.0
25/07:30pm 34.4 32.6 10.9 24 14.0 N 11 15 6 8 1009.2 1006.3 0.0
25/07:00pm 35.1 32.5 9.5 21 15.0 NNW 13 17 7 9 1009.0 1006.1 0.0
25/06:30pm 35.4 34.0 9.0 20 15.4 WNW 6 13 3 7 1008.8 1005.8 0.0
25/06:00pm 35.5 34.0 8.3 19 15.7 WNW 6 11 3 6 1008.7 1005.7 0.0
25/05:30pm 35.5 33.6 7.6 18 15.9 W 7 15 4 8 1008.7 1005.7 0.0
25/05:00pm 35.4 32.9 6.6 17 16.1 SW 9 15 5 8 1008.8 1005.8 0.0
25/04:30pm 35.8 33.2 6.1 16 16.6 SW 9 15 5 8 1008.8 1005.8 0.0
25/04:00pm 36.0 33.2 7.1 17 16.4 SW 11 19 6 10 1008.9 1005.9 0.0
25/03:30pm 35.5 33.6 6.7 17 16.2 W 6 17 3 9 1009.1 1006.2 0.0
25/03:00pm 35.5 33.6 6.7 17 16.2 WNW 6 13 3 7 1009.2 1006.3 0.0
25/02:30pm 35.0 31.9 7.1 18 15.8 W 13 17 7 9 1009.5 1006.6 0.0
25/02:00pm 34.8 31.8 7.8 19 15.4 NW 13 19 7 10 1009.5 1006.6 0.0
25/01:30pm 34.8 31.2 8.5 20 15.2 NNW 17 24 9 13 1009.7 1006.8 0.0
25/01:00pm 35.1 32.7 8.8 20 15.2 NNW 11 20 6 11 1010.0 1007.0 0.0
25/12:30pm 34.8 31.6 8.5 20 15.2 N 15 22 8 12 1010.3 1007.3 0.0
25/12:00pm 35.3 32.8 6.6 17 16.1 NNW 9 20 5 11 1010.5 1007.5 0.0
25/11:30am 35.4 32.4 5.8 16 16.4 E 11 20 6 11 1010.9 1008.0 0.0
25/11:00am 35.1 32.7 7.2 18 15.8 SSW 9 15 5 8 1011.1 1008.2 0.0
25/10:30am 34.5 31.4 9.0 21 14.8 SSE 15 20 8 11 1011.3 1008.4 0.0
25/10:00am 33.6 29.9 9.6 23 14.0 S 19 24 10 13 1011.4 1008.5 0.0
25/09:30am 32.1 28.3 9.0 24 13.2 SSW 19 30 10 16 1011.3 1008.4 0.0
25/09:00am 32.1 28.7 4.0 17 14.9 S 11 17 6 9 1011.4 1008.5 0.0
25/08:30am 30.6 27.2 1.9 16 14.5 S 9 11 5 6 1011.4 1008.5 0.0

Other formats

Comma delimited format used in spreadsheet applications
http://www.bom.gov.au/fwo/IDD60801/IDD60801.94457.axf

JavaScript Object Notation format (JSON) in row-major order
http://www.bom.gov.au/fwo/IDD60801/IDD60801.94457.json

Data quality

Most of these data are generated automatically and are frequently updated. Quality checks on data are not normally performed. It is possible for incorrect values to appear. Refer to information at About Latest Weather Observations and please check the disclaimer before using these data.